sensor_id;sensor_type;location;lat;lon;timestamp;pressure;altitude;pressure_sealevel;temperature;humidity
35443;BME280;21561;55.654;37.592;2023-03-14T00:01:44;99058.94;;;-4.55;88.33
35443;BME280;21561;55.654;37.592;2023-03-14T00:04:11;99057.94;;;-4.58;87.93
35443;BME280;21561;55.654;37.592;2023-03-14T00:06:38;99057.19;;;-4.56;88.48
35443;BME280;21561;55.654;37.592;2023-03-14T00:09:05;99049.59;;;-4.56;88.33
35443;BME280;21561;55.654;37.592;2023-03-14T00:11:32;99037.94;;;-4.52;88.81
35443;BME280;21561;55.654;37.592;2023-03-14T00:13:59;99033.75;;;-4.52;88.79
35443;BME280;21561;55.654;37.592;2023-03-14T00:16:27;99033.75;;;-4.52;88.63
35443;BME280;21561;55.654;37.592;2023-03-14T00:18:54;99016.94;;;-4.50;88.60
35443;BME280;21561;55.654;37.592;2023-03-14T00:21:20;99008.69;;;-4.46;88.52
35443;BME280;21561;55.654;37.592;2023-03-14T00:23:47;99002.13;;;-4.41;88.41
35443;BME280;21561;55.654;37.592;2023-03-14T00:26:17;98998.00;;;-4.38;87.89
35443;BME280;21561;55.654;37.592;2023-03-14T00:28:45;98988.78;;;-4.36;88.24
35443;BME280;21561;55.654;37.592;2023-03-14T00:31:14;98989.78;;;-4.33;87.65
35443;BME280;21561;55.654;37.592;2023-03-14T00:33:43;98992.38;;;-4.31;88.04
35443;BME280;21561;55.654;37.592;2023-03-14T00:36:15;98985.84;;;-4.26;87.70
35443;BME280;21561;55.654;37.592;2023-03-14T00:38:45;98983.94;;;-4.32;88.13
35443;BME280;21561;55.654;37.592;2023-03-14T00:41:15;98988.19;;;-4.31;88.31
35443;BME280;21561;55.654;37.592;2023-03-14T00:43:43;98982.25;;;-4.31;88.78
35443;BME280;21561;55.654;37.592;2023-03-14T00:46:10;98977.19;;;-4.31;89.45
35443;BME280;21561;55.654;37.592;2023-03-14T00:48:37;98976.41;;;-4.30;89.99
35443;BME280;21561;55.654;37.592;2023-03-14T00:51:06;98984.84;;;-4.30;90.46
35443;BME280;21561;55.654;37.592;2023-03-14T00:53:38;98979.84;;;-4.28;91.14
35443;BME280;21561;55.654;37.592;2023-03-14T00:56:07;98979.16;;;-4.24;91.17
35443;BME280;21561;55.654;37.592;2023-03-14T00:58:34;98971.56;;;-4.24;91.63
35443;BME280;21561;55.654;37.592;2023-03-14T01:01:09;98965.81;;;-4.20;92.38
35443;BME280;21561;55.654;37.592;2023-03-14T01:03:36;98953.06;;;-4.23;92.84
35443;BME280;21561;55.654;37.592;2023-03-14T01:06:11;98948.09;;;-4.20;93.37
35443;BME280;21561;55.654;37.592;2023-03-14T01:08:38;98954.09;;;-4.18;94.13
35443;BME280;21561;55.654;37.592;2023-03-14T01:11:10;98955.88;;;-4.15;95.25
35443;BME280;21561;55.654;37.592;2023-03-14T01:13:38;98956.75;;;-4.15;96.05
35443;BME280;21561;55.654;37.592;2023-03-14T01:16:07;98944.19;;;-4.12;96.55
35443;BME280;21561;55.654;37.592;2023-03-14T01:18:35;98956.09;;;-4.11;97.71
35443;BME280;21561;55.654;37.592;2023-03-14T01:21:26;98954.69;;;-4.03;98.16
35443;BME280;21561;55.654;37.592;2023-03-14T01:23:55;98939.25;;;-4.09;99.24
35443;BME280;21561;55.654;37.592;2023-03-14T01:26:25;98936.03;;;-4.05;100.00
35443;BME280;21561;55.654;37.592;2023-03-14T01:28:54;98926.03;;;-4.01;100.00
35443;BME280;21561;55.654;37.592;2023-03-14T01:31:21;98899.06;;;-3.99;100.00
35443;BME280;21561;55.654;37.592;2023-03-14T01:33:48;98885.53;;;-4.00;100.00
35443;BME280;21561;55.654;37.592;2023-03-14T01:36:15;98885.47;;;-4.01;100.00
35443;BME280;21561;55.654;37.592;2023-03-14T01:38:42;98884.66;;;-4.00;100.00
35443;BME280;21561;55.654;37.592;2023-03-14T01:41:16;98882.25;;;-3.97;100.00
35443;BME280;21561;55.654;37.592;2023-03-14T01:43:53;98883.88;;;-3.99;100.00
35443;BME280;21561;55.654;37.592;2023-03-14T01:49:24;98875.81;;;-3.89;100.00
35443;BME280;21561;55.654;37.592;2023-03-14T01:51:59;98862.44;;;-3.85;100.00
35443;BME280;21561;55.654;37.592;2023-03-14T01:57:11;98852.44;;;-3.82;100.00
35443;BME280;21561;55.654;37.592;2023-03-14T01:59:44;98845.75;;;-3.80;100.00
35443;BME280;21561;55.654;37.592;2023-03-14T02:02:13;98834.88;;;-3.76;100.00
35443;BME280;21561;55.654;37.592;2023-03-14T02:04:41;98821.44;;;-3.73;100.00
35443;BME280;21561;55.654;37.592;2023-03-14T02:07:30;98826.00;;;-3.65;100.00
35443;BME280;21561;55.654;37.592;2023-03-14T02:10:01;98827.63;;;-3.67;100.00
35443;BME280;21561;55.654;37.592;2023-03-14T02:12:29;98826.75;;;-3.67;100.00
35443;BME280;21561;55.654;37.592;2023-03-14T02:14:56;98817.47;;;-3.67;100.00
35443;BME280;21561;55.654;37.592;2023-03-14T02:17:23;98816.69;;;-3.66;100.00
35443;BME280;21561;55.654;37.592;2023-03-14T02:20:04;98815.84;;;-3.65;100.00
35443;BME280;21561;55.654;37.592;2023-03-14T02:22:35;98803.16;;;-3.65;100.00
35443;BME280;21561;55.654;37.592;2023-03-14T02:27:33;98809.06;;;-3.66;100.00
35443;BME280;21561;55.654;37.592;2023-03-14T02:30:08;98797.44;;;-3.60;100.00
35443;BME280;21561;55.654;37.592;2023-03-14T02:32:37;98780.47;;;-3.61;100.00
35443;BME280;21561;55.654;37.592;2023-03-14T02:35:11;98776.31;;;-3.59;100.00
35443;BME280;21561;55.654;37.592;2023-03-14T02:40:12;98733.19;;;-3.59;100.00
35443;BME280;21561;55.654;37.592;2023-03-14T02:42:39;98733.19;;;-3.59;100.00
35443;BME280;21561;55.654;37.592;2023-03-14T02:47:58;98744.44;;;-3.53;100.00
35443;BME280;21561;55.654;37.592;2023-03-14T02:50:29;98736.75;;;-3.54;100.00
35443;BME280;21561;55.654;37.592;2023-03-14T02:52:57;98735.97;;;-3.53;100.00
35443;BME280;21561;55.654;37.592;2023-03-14T02:55:24;98735.97;;;-3.53;100.00
35443;BME280;21561;55.654;37.592;2023-03-14T02:57:53;98726.72;;;-3.51;100.00
35443;BME280;21561;55.654;37.592;2023-03-14T03:00:20;98721.84;;;-3.45;100.00
35443;BME280;21561;55.654;37.592;2023-03-14T03:02:47;98738.03;;;-3.41;100.00
35443;BME280;21561;55.654;37.592;2023-03-14T03:05:14;98727.16;;;-3.39;100.00
35443;BME280;21561;55.654;37.592;2023-03-14T03:07:41;98748.59;;;-3.29;100.00
35443;BME280;21561;55.654;37.592;2023-03-14T03:10:08;98744.59;;;-3.22;100.00
35443;BME280;21561;55.654;37.592;2023-03-14T03:12:35;98723.56;;;-3.18;100.00
35443;BME280;21561;55.654;37.592;2023-03-14T03:15:02;98738.00;;;-3.17;100.00
35443;BME280;21561;55.654;37.592;2023-03-14T03:17:29;98702.56;;;-3.14;100.00
35443;BME280;21561;55.654;37.592;2023-03-14T03:19:56;98705.16;;;-3.13;100.00
35443;BME280;21561;55.654;37.592;2023-03-14T03:22:23;98721.44;;;-3.06;100.00
35443;BME280;21561;55.654;37.592;2023-03-14T03:24:50;98699.50;;;-3.04;100.00
35443;BME280;21561;55.654;37.592;2023-03-14T03:27:16;98692.78;;;-3.02;100.00
35443;BME280;21561;55.654;37.592;2023-03-14T03:29:43;98704.00;;;-2.95;100.00
35443;BME280;21561;55.654;37.592;2023-03-14T03:32:10;98684.56;;;-2.95;100.00
35443;BME280;21561;55.654;37.592;2023-03-14T03:34:37;98673.78;;;-2.88;100.00
35443;BME280;21561;55.654;37.592;2023-03-14T03:37:03;98666.25;;;-2.84;100.00
35443;BME280;21561;55.654;37.592;2023-03-14T03:39:30;98663.09;;;-2.77;100.00
35443;BME280;21561;55.654;37.592;2023-03-14T03:41:57;98648.13;;;-2.68;100.00
35443;BME280;21561;55.654;37.592;2023-03-14T03:44:24;98655.94;;;-2.62;100.00
35443;BME280;21561;55.654;37.592;2023-03-14T03:46:51;98658.66;;;-2.56;100.00
35443;BME280;21561;55.654;37.592;2023-03-14T03:49:18;98656.22;;;-2.53;100.00
35443;BME280;21561;55.654;37.592;2023-03-14T03:51:45;98664.00;;;-2.46;100.00
35443;BME280;21561;55.654;37.592;2023-03-14T03:54:12;98647.22;;;-2.41;100.00
35443;BME280;21561;55.654;37.592;2023-03-14T03:56:39;98646.47;;;-2.37;100.00
35443;BME280;21561;55.654;37.592;2023-03-14T03:59:05;98632.97;;;-2.36;100.00
35443;BME280;21561;55.654;37.592;2023-03-14T04:01:32;98659.38;;;-2.31;100.00
35443;BME280;21561;55.654;37.592;2023-03-14T04:03:59;98643.34;;;-2.28;100.00
35443;BME280;21561;55.654;37.592;2023-03-14T04:06:26;98640.84;;;-2.27;100.00
35443;BME280;21561;55.654;37.592;2023-03-14T04:08:54;98649.44;;;-2.22;100.00
35443;BME280;21561;55.654;37.592;2023-03-14T04:11:21;98647.06;;;-2.16;100.00
35443;BME280;21561;55.654;37.592;2023-03-14T04:13:48;98631.94;;;-2.11;100.00
35443;BME280;21561;55.654;37.592;2023-03-14T04:16:20;98649.84;;;-2.06;100.00
35443;BME280;21561;55.654;37.592;2023-03-14T04:18:48;98631.34;;;-2.02;100.00
35443;BME280;21561;55.654;37.592;2023-03-14T04:21:15;98632.34;;;-1.97;100.00
35443;BME280;21561;55.654;37.592;2023-03-14T04:23:42;98635.81;;;-1.94;100.00
35443;BME280;21561;55.654;37.592;2023-03-14T04:26:09;98623.25;;;-1.87;100.00
35443;BME280;21561;55.654;37.592;2023-03-14T04:28:36;98637.06;;;-1.78;100.00
35443;BME280;21561;55.654;37.592;2023-03-14T04:31:07;98622.81;;;-1.71;100.00
35443;BME280;21561;55.654;37.592;2023-03-14T04:33:34;98606.00;;;-1.66;100.00
35443;BME280;21561;55.654;37.592;2023-03-14T04:36:04;98618.88;;;-1.58;100.00
35443;BME280;21561;55.654;37.592;2023-03-14T04:38:31;98614.81;;;-1.51;100.00
35443;BME280;21561;55.654;37.592;2023-03-14T04:40:58;98611.56;;;-1.46;100.00
35443;BME280;21561;55.654;37.592;2023-03-14T04:43:29;98600.69;;;-1.39;100.00
35443;BME280;21561;55.654;37.592;2023-03-14T04:45:57;98592.38;;;-1.31;100.00
35443;BME280;21561;55.654;37.592;2023-03-14T04:48:25;98579.78;;;-1.27;100.00
35443;BME280;21561;55.654;37.592;2023-03-14T04:50:52;98593.44;;;-1.23;100.00
35443;BME280;21561;55.654;37.592;2023-03-14T04:53:19;98589.31;;;-1.18;100.00
35443;BME280;21561;55.654;37.592;2023-03-14T04:55:54;98583.41;;;-1.16;100.00
35443;BME280;21561;55.654;37.592;2023-03-14T04:58:22;98594.41;;;-1.18;100.00
35443;BME280;21561;55.654;37.592;2023-03-14T05:00:49;98585.88;;;-1.20;100.00
35443;BME280;21561;55.654;37.592;2023-03-14T05:03:18;98569.84;;;-1.16;100.00
35443;BME280;21561;55.654;37.592;2023-03-14T05:05:45;98570.03;;;-1.07;100.00
35443;BME280;21561;55.654;37.592;2023-03-14T05:08:12;98548.91;;;-1.03;100.00
35443;BME280;21561;55.654;37.592;2023-03-14T05:10:39;98552.34;;;-1.01;100.00
35443;BME280;21561;55.654;37.592;2023-03-14T05:13:06;98545.63;;;-0.99;100.00
35443;BME280;21561;55.654;37.592;2023-03-14T05:15:33;98540.63;;;-0.92;100.00
35443;BME280;21561;55.654;37.592;2023-03-14T05:18:00;98533.09;;;-0.88;100.00
35443;BME280;21561;55.654;37.592;2023-03-14T05:20:27;98543.28;;;-0.86;100.00
35443;BME280;21561;55.654;37.592;2023-03-14T05:22:53;98527.28;;;-0.82;100.00
35443;BME280;21561;55.654;37.592;2023-03-14T05:25:20;98529.84;;;-0.79;100.00
35443;BME280;21561;55.654;37.592;2023-03-14T05:27:47;98547.84;;;-0.73;100.00
35443;BME280;21561;55.654;37.592;2023-03-14T05:30:14;98520.81;;;-0.66;100.00
35443;BME280;21561;55.654;37.592;2023-03-14T05:32:41;98533.59;;;-0.62;100.00
35443;BME280;21561;55.654;37.592;2023-03-14T05:35:08;98537.16;;;-0.55;100.00
35443;BME280;21561;55.654;37.592;2023-03-14T05:37:35;98526.28;;;-0.46;100.00
35443;BME280;21561;55.654;37.592;2023-03-14T05:40:01;98530.56;;;-0.44;100.00
35443;BME280;21561;55.654;37.592;2023-03-14T05:42:29;98526.44;;;-0.37;100.00
35443;BME280;21561;55.654;37.592;2023-03-14T05:44:56;98531.59;;;-0.34;100.00
35443;BME280;21561;55.654;37.592;2023-03-14T05:47:23;98552.09;;;-0.28;100.00
35443;BME280;21561;55.654;37.592;2023-03-14T05:49:49;98537.75;;;-0.23;100.00
35443;BME280;21561;55.654;37.592;2023-03-14T05:52:16;98559.13;;;-0.14;100.00
35443;BME280;21561;55.654;37.592;2023-03-14T05:54:43;98540.63;;;-0.04;100.00
35443;BME280;21561;55.654;37.592;2023-03-14T05:57:10;98550.88;;;-0.01;100.00
35443;BME280;21561;55.654;37.592;2023-03-14T05:59:36;98550.09;;;0.03;100.00
35443;BME280;21561;55.654;37.592;2023-03-14T06:02:03;98569.78;;;0.10;100.00
35443;BME280;21561;55.654;37.592;2023-03-14T06:04:30;98569.84;;;0.13;100.00
35443;BME280;21561;55.654;37.592;2023-03-14T06:06:57;98563.13;;;0.18;100.00
35443;BME280;21561;55.654;37.592;2023-03-14T06:09:24;98547.88;;;0.22;100.00
35443;BME280;21561;55.654;37.592;2023-03-14T06:11:51;98548.78;;;0.27;100.00
35443;BME280;21561;55.654;37.592;2023-03-14T06:14:18;98559.09;;;0.33;100.00
35443;BME280;21561;55.654;37.592;2023-03-14T06:16:45;98545.50;;;0.34;100.00
35443;BME280;21561;55.654;37.592;2023-03-14T06:19:11;98542.22;;;0.40;100.00
35443;BME280;21561;55.654;37.592;2023-03-14T06:21:38;98556.69;;;0.42;100.00
35443;BME280;21561;55.654;37.592;2023-03-14T06:24:05;98523.56;;;0.45;100.00
35443;BME280;21561;55.654;37.592;2023-03-14T06:26:32;98536.41;;;0.51;100.00
35443;BME280;21561;55.654;37.592;2023-03-14T06:28:59;98533.13;;;0.59;100.00
35443;BME280;21561;55.654;37.592;2023-03-14T06:31:30;98534.06;;;0.64;100.00
35443;BME280;21561;55.654;37.592;2023-03-14T06:33:58;98533.19;;;0.62;100.00
35443;BME280;21561;55.654;37.592;2023-03-14T06:36:25;98558.72;;;0.62;100.00
35443;BME280;21561;55.654;37.592;2023-03-14T06:38:52;98546.84;;;0.65;100.00
35443;BME280;21561;55.654;37.592;2023-03-14T06:41:19;98540.00;;;0.64;100.00
35443;BME280;21561;55.654;37.592;2023-03-14T06:43:46;98531.50;;;0.64;100.00
35443;BME280;21561;55.654;37.592;2023-03-14T06:46:12;98511.13;;;0.67;100.00
35443;BME280;21561;55.654;37.592;2023-03-14T06:48:39;98525.63;;;0.69;100.00
35443;BME280;21561;55.654;37.592;2023-03-14T06:51:06;98517.16;;;0.73;100.00
35443;BME280;21561;55.654;37.592;2023-03-14T06:53:33;98512.94;;;0.74;100.00
35443;BME280;21561;55.654;37.592;2023-03-14T06:56:00;98508.69;;;0.76;99.98
35443;BME280;21561;55.654;37.592;2023-03-14T06:58:27;98532.53;;;0.76;98.84
35443;BME280;21561;55.654;37.592;2023-03-14T07:00:54;98517.28;;;0.81;98.84
35443;BME280;21561;55.654;37.592;2023-03-14T07:03:22;98535.28;;;0.90;98.81
35443;BME280;21561;55.654;37.592;2023-03-14T07:05:48;98531.88;;;0.91;98.68
35443;BME280;21561;55.654;37.592;2023-03-14T07:08:15;98520.03;;;0.97;98.15
35443;BME280;21561;55.654;37.592;2023-03-14T07:10:42;98520.13;;;1.03;97.76
35443;BME280;21561;55.654;37.592;2023-03-14T07:13:09;98518.47;;;1.09;97.81
35443;BME280;21561;55.654;37.592;2023-03-14T07:15:35;98533.88;;;1.14;97.59
35443;BME280;21561;55.654;37.592;2023-03-14T07:18:02;98526.28;;;1.17;96.18
35443;BME280;21561;55.654;37.592;2023-03-14T07:20:29;98527.19;;;1.22;95.66
35443;BME280;21561;55.654;37.592;2023-03-14T07:22:58;98561.34;;;1.30;95.56
35443;BME280;21561;55.654;37.592;2023-03-14T07:25:29;98530.69;;;1.32;95.25
35443;BME280;21561;55.654;37.592;2023-03-14T07:27:56;98552.06;;;1.37;95.00
35443;BME280;21561;55.654;37.592;2023-03-14T07:30:23;98540.19;;;1.42;95.42
35443;BME280;21561;55.654;37.592;2023-03-14T07:32:50;98543.66;;;1.49;95.48
35443;BME280;21561;55.654;37.592;2023-03-14T07:35:18;98541.22;;;1.57;94.51
35443;BME280;21561;55.654;37.592;2023-03-14T07:37:45;98545.53;;;1.62;93.23
35443;BME280;21561;55.654;37.592;2023-03-14T07:40:12;98547.34;;;1.71;93.60
35443;BME280;21561;55.654;37.592;2023-03-14T07:42:42;98552.47;;;1.76;92.16
35443;BME280;21561;55.654;37.592;2023-03-14T07:45:10;98539.75;;;1.79;91.66
35443;BME280;21561;55.654;37.592;2023-03-14T07:47:38;98532.06;;;1.79;91.73
35443;BME280;21561;55.654;37.592;2023-03-14T07:50:05;98555.09;;;1.79;91.18
35443;BME280;21561;55.654;37.592;2023-03-14T07:52:32;98553.41;;;1.81;91.71
35443;BME280;21561;55.654;37.592;2023-03-14T07:54:59;98526.97;;;1.80;91.01
35443;BME280;21561;55.654;37.592;2023-03-14T07:57:28;98538.09;;;1.84;90.33
35443;BME280;21561;55.654;37.592;2023-03-14T07:59:55;98527.91;;;1.90;91.20
35443;BME280;21561;55.654;37.592;2023-03-14T08:02:21;98533.09;;;1.96;90.60
35443;BME280;21561;55.654;37.592;2023-03-14T08:04:50;98532.25;;;1.99;91.56
35443;BME280;21561;55.654;37.592;2023-03-14T08:07:17;98536.53;;;2.00;91.95
35443;BME280;21561;55.654;37.592;2023-03-14T08:09:44;98549.31;;;1.98;91.97
35443;BME280;21561;55.654;37.592;2023-03-14T08:12:11;98577.47;;;1.98;92.18
35443;BME280;21561;55.654;37.592;2023-03-14T08:14:37;98563.81;;;1.96;92.17
35443;BME280;21561;55.654;37.592;2023-03-14T08:17:04;98567.19;;;1.95;93.48
35443;BME280;21561;55.654;37.592;2023-03-14T08:19:32;98556.06;;;1.91;94.44
35443;BME280;21561;55.654;37.592;2023-03-14T08:21:59;98554.38;;;1.90;95.05
35443;BME280;21561;55.654;37.592;2023-03-14T08:24:26;98555.25;;;1.94;95.00
35443;BME280;21561;55.654;37.592;2023-03-14T08:26:53;98555.22;;;1.91;94.78
35443;BME280;21561;55.654;37.592;2023-03-14T08:29:20;98570.56;;;1.91;94.75
35443;BME280;21561;55.654;37.592;2023-03-14T08:31:47;98579.09;;;1.93;94.49
35443;BME280;21561;55.654;37.592;2023-03-14T08:34:15;98562.97;;;2.00;93.85
35443;BME280;21561;55.654;37.592;2023-03-14T08:36:43;98558.81;;;2.08;93.16
35443;BME280;21561;55.654;37.592;2023-03-14T08:39:10;98548.66;;;2.18;90.86
35443;BME280;21561;55.654;37.592;2023-03-14T08:41:37;98557.22;;;2.26;90.56
35443;BME280;21561;55.654;37.592;2023-03-14T08:44:07;98550.44;;;2.31;89.54
35443;BME280;21561;55.654;37.592;2023-03-14T08:46:34;98553.06;;;2.36;89.58
35443;BME280;21561;55.654;37.592;2023-03-14T08:49:01;98550.53;;;2.40;88.90
35443;BME280;21561;55.654;37.592;2023-03-14T08:51:28;98545.47;;;2.46;89.54
35443;BME280;21561;55.654;37.592;2023-03-14T08:53:55;98560.00;;;2.52;88.37
35443;BME280;21561;55.654;37.592;2023-03-14T08:56:22;98545.56;;;2.62;87.15
35443;BME280;21561;55.654;37.592;2023-03-14T08:58:51;98562.69;;;2.69;85.97
35443;BME280;21561;55.654;37.592;2023-03-14T09:01:18;98553.38;;;2.77;86.34
35443;BME280;21561;55.654;37.592;2023-03-14T09:03:46;98566.19;;;2.83;85.01
35443;BME280;21561;55.654;37.592;2023-03-14T09:06:15;98538.94;;;2.92;85.28
35443;BME280;21561;55.654;37.592;2023-03-14T09:08:44;98546.63;;;2.93;84.07
35443;BME280;21561;55.654;37.592;2023-03-14T09:11:12;98539.84;;;3.01;84.27
35443;BME280;21561;55.654;37.592;2023-03-14T09:13:39;98539.03;;;3.07;83.69
35443;BME280;21561;55.654;37.592;2023-03-14T09:16:07;98542.47;;;3.09;82.97
35443;BME280;21561;55.654;37.592;2023-03-14T09:18:34;98522.84;;;3.14;83.26
35443;BME280;21561;55.654;37.592;2023-03-14T09:21:01;98545.06;;;3.18;83.12
35443;BME280;21561;55.654;37.592;2023-03-14T09:23:28;98547.66;;;3.21;81.92
35443;BME280;21561;55.654;37.592;2023-03-14T09:25:56;98556.22;;;3.25;81.86
35443;BME280;21561;55.654;37.592;2023-03-14T09:28:23;98563.06;;;3.31;82.10
35443;BME280;21561;55.654;37.592;2023-03-14T09:30:50;98548.56;;;3.36;81.20
35443;BME280;21561;55.654;37.592;2023-03-14T09:33:18;98553.69;;;3.34;80.57
35443;BME280;21561;55.654;37.592;2023-03-14T09:35:45;98551.13;;;3.39;80.76
35443;BME280;21561;55.654;37.592;2023-03-14T09:38:12;98548.56;;;3.34;81.89
35443;BME280;21561;55.654;37.592;2023-03-14T09:40:40;98546.84;;;3.35;81.66
35443;BME280;21561;55.654;37.592;2023-03-14T09:43:11;98565.66;;;3.32;81.02
35443;BME280;21561;55.654;37.592;2023-03-14T09:45:41;98547.69;;;3.37;80.63
35443;BME280;21561;55.654;37.592;2023-03-14T09:48:17;98546.00;;;3.42;80.08
35443;BME280;21561;55.654;37.592;2023-03-14T09:50:49;98534.91;;;3.46;79.62
35443;BME280;21561;55.654;37.592;2023-03-14T09:53:18;98564.88;;;3.50;79.24
35443;BME280;21561;55.654;37.592;2023-03-14T09:55:48;98540.09;;;3.55;78.67
35443;BME280;21561;55.654;37.592;2023-03-14T09:58:19;98541.78;;;3.56;78.90
35443;BME280;21561;55.654;37.592;2023-03-14T10:00:47;98549.50;;;3.59;78.78
35443;BME280;21561;55.654;37.592;2023-03-14T10:03:23;98542.69;;;3.65;78.72
35443;BME280;21561;55.654;37.592;2023-03-14T10:05:51;98558.06;;;3.65;78.03
35443;BME280;21561;55.654;37.592;2023-03-14T10:08:18;98554.69;;;3.72;78.36
35443;BME280;21561;55.654;37.592;2023-03-14T10:10:45;98561.53;;;3.79;77.25
35443;BME280;21561;55.654;37.592;2023-03-14T10:13:26;98544.44;;;3.90;76.86
35443;BME280;21561;55.654;37.592;2023-03-14T10:16:02;98532.47;;;3.94;77.52
35443;BME280;21561;55.654;37.592;2023-03-14T10:18:31;98521.34;;;3.99;76.78
35443;BME280;21561;55.654;37.592;2023-03-14T10:21:21;98519.63;;;4.00;76.57
35443;BME280;21561;55.654;37.592;2023-03-14T10:23:50;98517.94;;;4.07;76.88
35443;BME280;21561;55.654;37.592;2023-03-14T10:26:24;98517.09;;;4.17;76.07
35443;BME280;21561;55.654;37.592;2023-03-14T10:28:53;98499.13;;;4.17;77.42
35443;BME280;21561;55.654;37.592;2023-03-14T10:31:25;98493.13;;;4.12;77.95
35443;BME280;21561;55.654;37.592;2023-03-14T10:34:04;98493.16;;;4.06;78.17
35443;BME280;21561;55.654;37.592;2023-03-14T10:36:33;98513.66;;;3.99;78.47
35443;BME280;21561;55.654;37.592;2023-03-14T10:39:23;98539.34;;;4.06;79.19
35443;BME280;21561;55.654;37.592;2023-03-14T10:42:20;98515.38;;;4.07;78.50
35443;BME280;21561;55.654;37.592;2023-03-14T10:44:53;98508.53;;;4.09;77.08
35443;BME280;21561;55.654;37.592;2023-03-14T10:47:23;98519.66;;;4.14;77.50
35443;BME280;21561;55.654;37.592;2023-03-14T10:49:51;98519.66;;;4.17;77.70
35443;BME280;21561;55.654;37.592;2023-03-14T10:52:19;98496.56;;;4.17;77.57
35443;BME280;21561;55.654;37.592;2023-03-14T10:55:04;98493.97;;;4.23;76.96
35443;BME280;21561;55.654;37.592;2023-03-14T10:57:40;98490.56;;;4.33;76.81
35443;BME280;21561;55.654;37.592;2023-03-14T11:00:21;98493.13;;;4.43;76.50
35443;BME280;21561;55.654;37.592;2023-03-14T11:03:26;98493.09;;;4.52;75.41
35443;BME280;21561;55.654;37.592;2023-03-14T11:05:57;98487.97;;;4.69;74.88
35443;BME280;21561;55.654;37.592;2023-03-14T11:08:49;98482.75;;;4.89;73.00
35443;BME280;21561;55.654;37.592;2023-03-14T11:11:22;98523.81;;;5.04;71.40
35443;BME280;21561;55.654;37.592;2023-03-14T11:23:12;98468.84;;;5.36;69.21
35443;BME280;21561;55.654;37.592;2023-03-14T11:25:55;98459.44;;;5.32;68.67
35443;BME280;21561;55.654;37.592;2023-03-14T11:28:41;98485.13;;;5.40;70.06
35443;BME280;21561;55.654;37.592;2023-03-14T11:31:32;98473.16;;;5.31;67.69
35443;BME280;21561;55.654;37.592;2023-03-14T11:34:54;98472.31;;;5.35;68.67
35443;BME280;21561;55.654;37.592;2023-03-14T11:37:31;98482.59;;;5.32;68.84
35443;BME280;21561;55.654;37.592;2023-03-14T11:42:38;98492.03;;;5.28;68.24
35443;BME280;21561;55.654;37.592;2023-03-14T11:45:17;98500.59;;;5.32;68.93
35443;BME280;21561;55.654;37.592;2023-03-14T11:47:52;98478.31;;;5.31;68.50
35443;BME280;21561;55.654;37.592;2023-03-14T11:50:26;98467.16;;;5.32;67.56
35443;BME280;21561;55.654;37.592;2023-03-14T11:53:01;98479.19;;;5.33;67.27
35443;BME280;21561;55.654;37.592;2023-03-14T11:55:35;98463.75;;;5.33;66.97
35443;BME280;21561;55.654;37.592;2023-03-14T11:58:16;98483.44;;;5.40;66.35
35443;BME280;21561;55.654;37.592;2023-03-14T12:00:44;98498.81;;;5.48;67.89
35443;BME280;21561;55.654;37.592;2023-03-14T12:06:09;98523.66;;;5.50;66.05
35443;BME280;21561;55.654;37.592;2023-03-14T12:08:46;98497.09;;;5.51;64.65
35443;BME280;21561;55.654;37.592;2023-03-14T12:13:52;98509.13;;;5.45;65.38
35443;BME280;21561;55.654;37.592;2023-03-14T12:18:47;98494.56;;;5.36;64.62
35443;BME280;21561;55.654;37.592;2023-03-14T12:21:14;98504.84;;;5.41;65.55
35443;BME280;21561;55.654;37.592;2023-03-14T12:23:59;98479.97;;;5.40;64.23
35443;BME280;21561;55.654;37.592;2023-03-14T12:26:27;98496.28;;;5.40;64.03
35443;BME280;21561;55.654;37.592;2023-03-14T12:29:16;98501.41;;;5.45;64.51
35443;BME280;21561;55.654;37.592;2023-03-14T12:32:06;98540.84;;;5.48;65.60
35443;BME280;21561;55.654;37.592;2023-03-14T12:34:42;98493.69;;;5.43;63.91
35443;BME280;21561;55.654;37.592;2023-03-14T12:40:21;98529.69;;;5.46;64.94
35443;BME280;21561;55.654;37.592;2023-03-14T12:43:00;98526.31;;;5.37;64.11
35443;BME280;21561;55.654;37.592;2023-03-14T12:45:35;98532.31;;;5.40;63.90
35443;BME280;21561;55.654;37.592;2023-03-14T12:48:20;98520.28;;;5.39;65.23
35443;BME280;21561;55.654;37.592;2023-03-14T12:51:11;98530.59;;;5.36;65.34
35443;BME280;21561;55.654;37.592;2023-03-14T12:56:51;98587.28;;;5.08;69.97
35443;BME280;21561;55.654;37.592;2023-03-14T12:59:33;98588.16;;;4.92;70.06
35443;BME280;21561;55.654;37.592;2023-03-14T13:04:35;98571.88;;;4.74;69.67
35443;BME280;21561;55.654;37.592;2023-03-14T13:07:19;98566.72;;;4.81;70.16
35443;BME280;21561;55.654;37.592;2023-03-14T13:10:17;98544.44;;;4.83;69.41
35443;BME280;21561;55.654;37.592;2023-03-14T13:15:43;98505.91;;;4.86;67.81
35443;BME280;21561;55.654;37.592;2023-03-14T13:18:17;98511.03;;;4.89;67.05
35443;BME280;21561;55.654;37.592;2023-03-14T13:20:53;98527.31;;;4.94;67.84
35443;BME280;21561;55.654;37.592;2023-03-14T13:23:27;98516.16;;;4.93;67.33
35443;BME280;21561;55.654;37.592;2023-03-14T13:25:54;98499.91;;;4.88;66.38
35443;BME280;21561;55.654;37.592;2023-03-14T13:28:21;98494.72;;;4.90;67.09
35443;BME280;21561;55.654;37.592;2023-03-14T13:30:54;98497.34;;;4.87;67.07
35443;BME280;21561;55.654;37.592;2023-03-14T13:33:22;98507.63;;;4.87;66.82
35443;BME280;21561;55.654;37.592;2023-03-14T13:35:59;98512.75;;;4.85;67.71
35443;BME280;21561;55.654;37.592;2023-03-14T13:38:32;98505.03;;;4.81;67.30
35443;BME280;21561;55.654;37.592;2023-03-14T13:41:00;98517.03;;;4.78;67.33
35443;BME280;21561;55.654;37.592;2023-03-14T13:43:32;98499.94;;;4.77;67.30
35443;BME280;21561;55.654;37.592;2023-03-14T13:46:13;98508.47;;;4.73;67.01
35443;BME280;21561;55.654;37.592;2023-03-14T13:48:48;98497.34;;;4.71;66.57
35443;BME280;21561;55.654;37.592;2023-03-14T13:51:18;98504.22;;;4.66;66.97
35443;BME280;21561;55.654;37.592;2023-03-14T13:53:53;98520.47;;;4.68;66.83